Time;durP1;ratioP1;P1;durP2;ratioP2;P2;SDS_P1;SDS_P2;PMS_P1;PMS_P2;Temp;Humidity;BMP_temperature;BMP_pressure;BME280_temperature;BME280_humidity;BME280_pressure;Samples;Min_cycle;Max_cycle;Signal;HPM_P1;HPM_P2
2023/06/11 00:02:24;;;;;;;12.30;6.80;;;;;;;18.82;73.17;99445.23;108075;1306;22398;-41
2023/06/11 00:04:50;;;;;;;13.70;7.20;;;;;;;18.78;73.35;99445.00;108069;1306;22270;-42
2023/06/11 00:07:16;;;;;;;9.50;7.00;;;;;;;18.76;73.72;99448.21;108068;1306;22403;-41
2023/06/11 00:09:41;;;;;;;13.50;7.10;;;;;;;18.72;73.79;99446.93;108031;1306;22212;-41
2023/06/11 00:12:07;;;;;;;9.80;7.50;;;;;;;18.70;73.19;99449.06;108053;1306;22297;-42
2023/06/11 00:14:32;;;;;;;14.80;7.40;;;;;;;18.71;73.28;99452.84;108075;1306;22255;-41
2023/06/11 00:16:57;;;;;;;11.50;7.50;;;;;;;18.67;73.68;99454.96;108070;1306;22423;-42
2023/06/11 00:19:28;;;;;;;8.50;6.80;;;;;;;18.63;74.26;99458.56;108072;1306;22489;-42
2023/06/11 00:21:56;;;;;;;9.40;7.70;;;;;;;18.60;73.61;99454.73;108065;1306;22230;-41
2023/06/11 00:24:21;;;;;;;;;;;;;;;18.56;73.79;99452.60;108101;1306;22465;-41
2023/06/11 00:26:46;;;;;;;13.80;6.80;;;;;;;18.52;75.19;99455.63;108061;1306;23141;-41
2023/06/11 00:29:12;;;;;;;9.00;7.20;;;;;;;18.51;74.57;99456.08;108051;1306;22419;-41
2023/06/11 00:31:37;;;;;;;8.70;7.30;;;;;;;18.47;74.61;99457.05;108048;1306;22440;-41
2023/06/11 00:34:02;;;;;;;10.60;6.90;;;;;;;18.46;74.64;99457.37;108044;1306;25144;-42
2023/06/11 00:36:29;;;;;;;10.50;7.00;;;;;;;18.44;75.29;99458.59;108039;1306;22249;-41
2023/06/11 00:38:55;;;;;;;9.20;7.60;;;;;;;18.40;75.71;99459.39;108062;1306;23383;-41
2023/06/11 00:41:20;;;;;;;13.40;7.70;;;;;;;18.36;75.83;99460.82;108075;1306;22245;-41
2023/06/11 00:43:48;;;;;;;9.40;7.20;;;;;;;18.33;75.52;99458.39;108077;1306;22231;-41
2023/06/11 00:46:16;;;;;;;8.30;7.50;;;;;;;18.32;75.37;99458.30;108060;1306;22299;-44
2023/06/11 00:48:41;;;;;;;;;;;;;;;18.31;75.70;99463.23;108075;1306;22454;-49
2023/06/11 00:51:08;;;;;;;9.40;7.40;;;;;;;18.27;76.08;99465.84;108052;1306;22216;-41
2023/06/11 00:53:33;;;;;;;12.00;8.00;;;;;;;18.26;75.84;99468.11;108077;1306;22424;-41
2023/06/11 00:55:58;;;;;;;9.40;7.60;;;;;;;18.25;75.51;99467.63;108054;1306;22961;-41
2023/06/11 00:58:24;;;;;;;11.40;7.30;;;;;;;18.23;75.81;99465.52;108075;1306;22255;-42
2023/06/11 01:00:55;;;;;;;11.00;7.40;;;;;;;18.21;75.85;99468.87;108048;1306;23000;-42
2023/06/11 01:03:24;;;;;;;10.10;7.10;;;;;;;18.21;75.80;99466.54;108047;1306;22960;-41
2023/06/11 01:06:01;;;;;;;9.40;7.40;;;;;;;18.21;75.88;99467.92;108052;1306;22406;-42
2023/06/11 01:08:30;;;;;;;10.10;7.30;;;;;;;18.22;75.46;99468.42;108075;1306;22264;-42
2023/06/11 01:11:02;;;;;;;9.30;7.50;;;;;;;18.18;75.87;99466.77;108052;1306;22257;-42
2023/06/11 01:13:28;;;;;;;11.40;7.20;;;;;;;18.17;75.55;99466.20;108060;1306;22493;-41
2023/06/11 01:16:00;;;;;;;12.30;7.60;;;;;;;18.14;76.01;99468.70;108067;1306;22568;-42
2023/06/11 01:18:33;;;;;;;12.90;7.40;;;;;;;18.12;76.19;99468.52;108069;1306;22326;-42
2023/06/11 01:21:06;;;;;;;9.80;7.60;;;;;;;18.11;76.46;99469.20;108055;1306;22256;-41
2023/06/11 01:24:03;;;;;;;8.40;7.40;;;;;;;18.08;76.66;99468.41;108060;1306;22486;-43
2023/06/11 01:27:04;;;;;;;9.80;7.40;;;;;;;18.04;76.79;99469.36;108081;1306;22412;-42
2023/06/11 01:29:30;;;;;;;8.60;7.50;;;;;;;18.01;76.54;99472.80;108099;1306;23263;-42
2023/06/11 01:31:58;;;;;;;13.80;7.80;;;;;;;18.00;76.37;99473.81;108064;1306;22448;-41
2023/06/11 01:34:25;;;;;;;9.30;7.10;;;;;;;17.98;76.81;99477.83;108058;1306;22435;-42
2023/06/11 01:36:50;;;;;;;12.30;7.50;;;;;;;17.97;76.73;99478.98;108064;1306;22706;-42
2023/06/11 01:39:16;;;;;;;11.00;7.50;;;;;;;17.97;76.84;99480.58;108069;1306;23444;-42
2023/06/11 01:41:41;;;;;;;9.60;7.20;;;;;;;17.97;76.54;99477.21;108055;1306;22318;-42
2023/06/11 01:44:06;;;;;;;9.20;7.10;;;;;;;17.99;76.72;99481.70;108056;1306;22204;-41
2023/06/11 01:46:32;;;;;;;8.60;6.70;;;;;;;17.97;76.81;99484.30;108025;1306;22301;-42
2023/06/11 01:48:57;;;;;;;13.20;8.10;;;;;;;17.96;76.56;99484.20;108051;1306;22244;-42
2023/06/11 01:51:22;;;;;;;10.50;7.50;;;;;;;17.94;77.18;99483.88;108030;1306;22298;-43
2023/06/11 01:53:48;;;;;;;9.40;6.90;;;;;;;17.93;76.72;99486.10;108034;1306;22330;-42
2023/06/11 01:56:13;;;;;;;8.20;7.00;;;;;;;17.88;76.30;99485.77;107983;1306;22239;-42
2023/06/11 01:58:38;;;;;;;8.40;7.20;;;;;;;17.82;76.35;99490.13;107869;1307;23480;-41
2023/06/11 02:01:04;;;;;;;12.00;7.40;;;;;;;17.77;77.14;99488.78;107883;1307;22233;-41
2023/06/11 02:03:29;;;;;;;11.60;7.10;;;;;;;17.74;77.06;99490.46;107893;1307;22518;-41
2023/06/11 02:05:55;;;;;;;12.90;7.90;;;;;;;17.70;76.89;99489.91;107873;1307;22352;-41
2023/06/11 02:08:20;;;;;;;10.50;7.50;;;;;;;17.66;76.90;99489.88;107867;1307;22398;-41
2023/06/11 02:10:46;;;;;;;11.10;7.40;;;;;;;17.62;77.08;99492.42;107890;1307;23125;-41
2023/06/11 02:13:12;;;;;;;9.90;7.50;;;;;;;17.59;76.70;99494.64;107882;1307;23004;-41
2023/06/11 02:15:37;;;;;;;9.50;7.60;;;;;;;17.57;76.84;99493.75;107884;1307;22362;-42
2023/06/11 02:18:02;;;;;;;8.30;7.30;;;;;;;17.53;77.66;99494.65;107877;1307;22430;-41
2023/06/11 02:20:28;;;;;;;8.00;7.20;;;;;;;17.47;77.42;99491.55;107885;1307;22215;-41
2023/06/11 02:22:53;;;;;;;10.30;7.10;;;;;;;17.41;78.19;99493.11;107875;1307;23106;-41
2023/06/11 02:25:19;;;;;;;12.70;7.50;;;;;;;17.41;77.89;99494.73;107873;1307;22221;-41
2023/06/11 02:27:44;;;;;;;10.20;7.00;;;;;;;17.40;78.20;99499.73;107854;1307;23062;-42
2023/06/11 02:30:10;;;;;;;10.10;7.20;;;;;;;17.37;78.12;99499.86;107858;1307;22913;-42
2023/06/11 02:32:35;;;;;;;9.60;7.50;;;;;;;17.35;78.18;99504.27;107885;1307;22247;-41
2023/06/11 02:35:01;;;;;;;8.50;7.50;;;;;;;17.35;77.28;99506.02;107875;1307;22236;-41
2023/06/11 02:37:26;;;;;;;11.70;7.50;;;;;;;17.32;77.81;99512.12;107860;1307;22410;-42
2023/06/11 02:39:51;;;;;;;15.20;7.40;;;;;;;17.26;77.93;99511.27;107885;1307;22268;-42
2023/06/11 02:43:39;;;;;;;11.60;8.10;;;;;;;17.24;78.11;99512.34;105970;1302;545293;-38
2023/06/11 02:46:04;;;;;;;14.80;8.10;;;;;;;17.20;78.12;99509.46;106288;1312;22574;-41
2023/06/11 02:48:30;;;;;;;14.40;8.70;;;;;;;17.16;78.04;99513.02;106446;1312;22373;-40
2023/06/11 02:50:55;;;;;;;11.00;8.00;;;;;;;17.11;78.46;99516.79;107476;1311;22520;-40
2023/06/11 02:53:21;;;;;;;11.00;8.10;;;;;;;17.07;78.63;99514.41;107486;1311;23210;-40
2023/06/11 02:55:46;;;;;;;9.10;8.10;;;;;;;17.07;77.97;99515.30;107483;1311;22282;-41
2023/06/11 02:58:12;;;;;;;12.60;8.90;;;;;;;17.06;78.41;99514.64;107592;1309;177379;-40
2023/06/11 03:00:37;;;;;;;10.60;8.80;;;;;;;17.06;78.10;99515.73;107757;1309;22246;-40
2023/06/11 03:03:02;;;;;;;13.50;9.00;;;;;;;17.05;77.73;99520.77;107732;1309;23347;-40
2023/06/11 03:05:27;;;;;;;11.80;8.80;;;;;;;17.02;78.04;99520.31;107753;1309;22694;-41
2023/06/11 03:07:53;;;;;;;12.90;9.20;;;;;;;16.99;78.12;99518.45;107761;1309;22447;-40
2023/06/11 03:10:18;;;;;;;9.40;8.50;;;;;;;16.98;78.11;99520.44;107757;1309;22207;-41
2023/06/11 03:12:43;;;;;;;14.40;8.60;;;;;;;16.93;78.32;99524.20;107756;1309;22239;-41
2023/06/11 03:15:09;;;;;;;12.10;8.90;;;;;;;16.93;77.31;99528.80;107674;1308;23119;-41
2023/06/11 03:17:35;;;;;;;12.20;8.90;;;;;;;16.92;78.02;99534.58;107837;1308;22498;-40
2023/06/11 03:20:00;;;;;;;12.00;8.50;;;;;;;16.92;77.57;99536.30;107828;1308;22289;-41
2023/06/11 03:22:25;;;;;;;18.50;9.00;;;;;;;16.93;77.45;99541.91;107833;1308;22987;-41
2023/06/11 03:24:50;;;;;;;12.90;8.30;;;;;;;16.92;77.23;99543.90;107810;1308;22420;-41
2023/06/11 03:27:16;;;;;;;13.60;8.70;;;;;;;16.93;77.47;99547.60;107819;1308;22231;-41
2023/06/11 03:29:41;;;;;;;9.00;8.10;;;;;;;16.91;77.31;99544.36;107809;1308;22304;-40
2023/06/11 03:32:07;;;;;;;13.10;9.00;;;;;;;16.90;77.20;99547.45;107807;1308;23131;-40
2023/06/11 03:34:32;;;;;;;14.60;8.30;;;;;;;16.92;76.78;99545.04;107834;1308;22275;-41
2023/06/11 03:36:58;;;;;;;17.40;8.90;;;;;;;16.93;76.74;99543.46;107818;1308;22263;-40
2023/06/11 03:39:23;;;;;;;11.30;8.40;;;;;;;16.93;76.72;99548.68;107828;1308;22410;-40
2023/06/11 03:41:48;;;;;;;12.10;8.30;;;;;;;16.94;76.62;99548.77;107823;1308;22287;-41
2023/06/11 03:44:14;;;;;;;13.20;8.30;;;;;;;16.93;76.29;99549.36;107819;1308;22422;-40
2023/06/11 03:46:39;;;;;;;10.30;7.30;;;;;;;16.94;76.14;99555.27;107823;1308;22466;-41
2023/06/11 03:49:04;;;;;;;10.50;8.10;;;;;;;16.96;76.37;99553.91;107869;1308;22519;-40
2023/06/11 03:51:30;;;;;;;10.00;7.60;;;;;;;16.97;76.27;99561.79;107859;1308;23249;-41
2023/06/11 03:53:55;;;;;;;14.40;7.60;;;;;;;16.99;75.86;99561.10;107954;1307;22715;-40
2023/06/11 03:56:20;;;;;;;13.60;7.70;;;;;;;17.01;75.50;99566.28;107946;1307;22228;-41
2023/06/11 03:58:45;;;;;;;10.10;7.40;;;;;;;17.03;75.33;99570.36;107969;1307;22234;-42
2023/06/11 04:01:12;;;;;;;12.40;7.40;;;;;;;17.02;75.40;99574.13;107975;1307;22291;-42
2023/06/11 04:03:37;;;;;;;11.00;7.60;;;;;;;17.00;75.04;99577.49;107975;1307;22208;-42
2023/06/11 04:06:02;;;;;;;13.00;8.40;;;;;;;17.00;74.60;99577.11;107978;1298;22422;-41
2023/06/11 04:08:28;;;;;;;8.80;7.80;;;;;;;16.92;74.83;99576.86;107986;1307;22429;-42
2023/06/11 04:10:53;;;;;;;11.90;7.30;;;;;;;16.90;75.19;99578.77;107992;1307;22247;-41
2023/06/11 04:13:18;;;;;;;12.60;8.30;;;;;;;16.91;74.42;99579.59;107954;1307;22218;-43
2023/06/11 04:15:44;;;;;;;11.20;7.70;;;;;;;16.87;74.42;99577.02;107997;1307;23167;-42
2023/06/11 04:18:10;;;;;;;15.20;7.20;;;;;;;16.82;75.01;99585.55;107977;1307;22562;-42
2023/06/11 04:20:36;;;;;;;10.80;8.40;;;;;;;16.80;75.01;99585.73;108002;1307;22173;-40
2023/06/11 04:23:01;;;;;;;13.80;8.30;;;;;;;16.80;74.28;99589.23;107985;1307;22238;-41
2023/06/11 04:25:26;;;;;;;13.60;8.10;;;;;;;16.78;74.58;99587.95;107967;1307;22950;-41
2023/06/11 04:27:53;;;;;;;12.20;7.80;;;;;;;16.76;74.48;99592.02;107969;1307;22245;-41
2023/06/11 04:30:18;;;;;;;8.60;6.80;;;;;;;16.77;74.35;99590.40;107991;1307;22973;-40
2023/06/11 04:32:44;;;;;;;13.40;7.50;;;;;;;16.79;74.56;99589.73;107996;1307;22447;-41
2023/06/11 04:35:10;;;;;;;12.80;7.40;;;;;;;16.84;74.51;99590.79;107993;1307;22615;-41
2023/06/11 04:37:40;;;;;;;16.60;7.40;;;;;;;16.87;74.06;99590.87;107985;1307;22342;-41
2023/06/11 04:40:10;;;;;;;13.20;6.60;;;;;;;16.93;73.88;99587.80;107961;1307;22243;-41
2023/06/11 04:42:37;;;;;;;10.60;7.00;;;;;;;16.98;73.40;99591.10;107957;1307;22458;-41
2023/06/11 04:45:04;;;;;;;11.80;6.80;;;;;;;17.02;73.24;99589.26;107979;1289;22476;-41
2023/06/11 04:47:32;;;;;;;10.40;6.60;;;;;;;17.07;73.02;99588.80;107958;1307;22310;-41
2023/06/11 04:50:02;;;;;;;9.80;6.60;;;;;;;17.11;72.47;99592.95;107966;1307;22216;-42
2023/06/11 04:52:31;;;;;;;9.80;7.00;;;;;;;17.15;71.88;99597.09;107966;1307;22206;-42
2023/06/11 04:54:56;;;;;;;10.20;6.40;;;;;;;17.15;71.51;99597.61;107989;1307;22245;-41
2023/06/11 04:57:23;;;;;;;8.60;6.00;;;;;;;17.12;71.22;99600.27;107959;1307;22231;-41
2023/06/11 04:59:50;;;;;;;9.30;6.00;;;;;;;17.13;71.26;99600.23;107964;1307;23119;-42
2023/06/11 05:02:16;;;;;;;9.70;6.20;;;;;;;17.15;70.78;99602.16;107946;1307;22761;-42
2023/06/11 05:04:41;;;;;;;8.00;5.80;;;;;;;17.18;70.13;99603.55;107970;1307;23577;-42
2023/06/11 05:07:07;;;;;;;10.50;6.20;;;;;;;17.24;69.87;99603.42;107940;1307;22239;-42
2023/06/11 05:09:32;;;;;;;14.50;6.20;;;;;;;17.24;69.54;99601.88;107947;1307;22202;-42
2023/06/11 05:11:57;;;;;;;6.90;5.40;;;;;;;17.27;69.97;99604.45;107943;1307;22563;-42
2023/06/11 05:14:23;;;;;;;7.00;5.90;;;;;;;17.33;69.62;99607.16;107959;1307;22460;-41
2023/06/11 05:16:50;;;;;;;6.80;5.60;;;;;;;17.39;69.12;99608.83;107957;1307;22242;-42
2023/06/11 05:19:15;;;;;;;12.60;5.70;;;;;;;17.43;68.88;99610.66;107980;1307;22293;-41
2023/06/11 05:21:41;;;;;;;14.60;5.90;;;;;;;17.48;68.51;99610.41;107959;1307;22351;-40
2023/06/11 05:24:07;;;;;;;12.20;6.40;;;;;;;17.51;68.15;99613.00;107949;1307;22220;-41
2023/06/11 05:26:36;;;;;;;12.20;6.20;;;;;;;17.52;68.28;99617.42;107974;1307;22236;-41
2023/06/11 05:29:02;;;;;;;10.90;5.70;;;;;;;17.50;68.06;99617.53;107934;1307;23072;-40
2023/06/11 05:31:29;;;;;;;10.70;5.80;;;;;;;17.49;67.72;99619.75;107963;1307;22711;-43
2023/06/11 05:33:55;;;;;;;7.50;5.30;;;;;;;17.52;67.57;99618.11;107976;1307;22230;-42
2023/06/11 05:36:22;;;;;;;11.20;5.30;;;;;;;17.57;67.57;99622.67;107950;1307;22248;-41
2023/06/11 05:38:47;;;;;;;6.90;5.40;;;;;;;17.59;67.22;99622.11;107950;1307;22228;-41
2023/06/11 05:41:13;;;;;;;13.10;5.80;;;;;;;17.59;66.98;99625.66;107959;1307;22472;-41
2023/06/11 05:43:38;;;;;;;7.60;5.40;;;;;;;17.63;66.73;99625.33;107973;1292;22231;-41
2023/06/11 05:46:06;;;;;;;10.20;5.30;;;;;;;17.61;66.73;99628.55;107937;1307;22928;-41
2023/06/11 05:48:31;;;;;;;5.50;4.90;;;;;;;17.60;66.83;99628.08;107990;1307;22429;-42
2023/06/11 05:50:57;;;;;;;10.30;5.70;;;;;;;17.61;67.04;99628.89;107975;1307;22307;-42
2023/06/11 05:53:22;;;;;;;11.80;5.40;;;;;;;17.63;66.74;99629.77;107955;1307;22424;-42
2023/06/11 05:55:47;;;;;;;10.60;5.30;;;;;;;17.67;66.57;99635.39;107958;1307;22343;-42
2023/06/11 05:58:12;;;;;;;6.50;4.80;;;;;;;17.68;66.19;99636.35;107943;1307;22402;-42
2023/06/11 06:00:38;;;;;;;8.70;4.80;;;;;;;17.70;66.18;99643.29;107974;1307;22289;-41
2023/06/11 06:03:04;;;;;;;10.30;5.30;;;;;;;17.70;65.93;99644.86;107947;1307;23118;-42
2023/06/11 06:05:29;;;;;;;7.60;5.20;;;;;;;17.70;66.15;99646.30;107964;1307;22218;-40
2023/06/11 06:07:55;;;;;;;6.30;4.50;;;;;;;17.72;66.34;99648.09;107937;1307;23153;-40
2023/06/11 06:10:21;;;;;;;11.50;4.80;;;;;;;17.76;65.78;99649.36;107963;1307;22411;-41
2023/06/11 06:12:46;;;;;;;6.20;4.90;;;;;;;17.79;65.57;99650.68;107959;1307;22292;-39
2023/06/11 06:15:11;;;;;;;5.80;4.70;;;;;;;17.82;65.49;99652.95;107954;1307;22266;-41
2023/06/11 06:17:36;;;;;;;9.50;5.60;;;;;;;17.87;65.63;99654.21;107931;1307;22880;-41
2023/06/11 06:20:02;;;;;;;9.30;4.60;;;;;;;17.92;65.47;99654.48;107959;1307;22254;-41
2023/06/11 06:22:27;;;;;;;5.70;4.80;;;;;;;17.95;65.22;99658.28;107941;1307;22202;-40
2023/06/11 06:24:53;;;;;;;11.20;4.90;;;;;;;18.01;65.08;99656.40;107782;1307;22995;-40
2023/06/11 06:27:18;;;;;;;10.80;4.90;;;;;;;18.08;64.81;99653.94;107008;1307;22189;-39
2023/06/11 06:29:43;;;;;;;13.20;5.40;;;;;;;18.12;64.66;99654.34;107950;1307;22391;-39
2023/06/11 06:32:08;;;;;;;8.40;4.80;;;;;;;18.12;64.38;99649.02;107963;1307;22241;-40
2023/06/11 06:34:34;;;;;;;9.50;4.40;;;;;;;18.13;64.42;99649.64;107972;1307;22401;-41
2023/06/11 06:37:00;;;;;;;9.00;4.70;;;;;;;18.15;64.30;99651.55;107963;1307;22193;-42
2023/06/11 06:39:26;;;;;;;8.00;4.30;;;;;;;18.22;63.95;99654.20;107524;1307;22575;-39
2023/06/11 06:41:51;;;;;;;8.90;4.70;;;;;;;18.30;63.70;99653.71;107946;1307;22586;-40
2023/06/11 06:44:17;;;;;;;5.10;4.50;;;;;;;18.34;63.04;99654.14;107962;1307;22246;-40
2023/06/11 06:46:42;;;;;;;6.70;4.50;;;;;;;18.41;63.30;99654.96;107976;1307;22465;-40
2023/06/11 06:49:07;;;;;;;10.60;4.70;;;;;;;18.48;62.92;99654.08;107939;1307;22856;-40
2023/06/11 06:51:33;;;;;;;8.70;4.40;;;;;;;18.53;62.96;99655.75;107950;1307;22155;-40
2023/06/11 06:53:59;;;;;;;6.80;4.40;;;;;;;18.58;62.94;99658.39;107980;1307;23096;-42
2023/06/11 06:56:24;;;;;;;5.20;4.30;;;;;;;18.64;62.58;99655.17;107964;1307;22252;-40
2023/06/11 06:58:50;;;;;;;5.10;4.40;;;;;;;18.70;61.75;99656.31;107962;1307;22296;-40
2023/06/11 07:01:15;;;;;;;9.60;4.40;;;;;;;18.74;61.38;99657.60;107950;1307;22184;-40
2023/06/11 07:03:41;;;;;;;8.60;4.10;;;;;;;18.80;61.17;99660.83;107970;1307;22225;-40
2023/06/11 07:06:08;;;;;;;6.70;4.30;;;;;;;18.87;61.40;99660.78;107954;1307;22221;-40
2023/06/11 07:08:33;;;;;;;9.00;4.30;;;;;;;18.95;60.84;99660.96;107980;1307;22383;-41
2023/06/11 07:10:58;;;;;;;8.30;3.80;;;;;;;19.03;59.92;99662.41;107953;1307;22639;-41
2023/06/11 07:13:24;;;;;;;11.40;4.20;;;;;;;19.08;59.39;99666.30;107943;1307;22238;-41
2023/06/11 07:15:50;;;;;;;11.10;3.80;;;;;;;19.13;58.99;99667.84;107991;1307;23045;-41
2023/06/11 07:18:15;;;;;;;4.30;3.40;;;;;;;19.19;58.94;99665.21;107959;1307;22596;-41
2023/06/11 07:20:41;;;;;;;7.60;3.90;;;;;;;19.27;58.64;99670.23;107946;1307;22401;-42
2023/06/11 07:23:07;;;;;;;8.50;3.80;;;;;;;19.32;58.70;99671.20;107984;1307;23205;-41
2023/06/11 07:25:33;;;;;;;9.30;4.30;;;;;;;19.40;57.93;99673.39;107954;1307;22318;-41
2023/06/11 07:28:00;;;;;;;4.10;3.80;;;;;;;19.44;57.54;99673.00;108037;1307;22386;-42
2023/06/11 07:30:26;;;;;;;9.90;3.60;;;;;;;19.49;57.75;99676.27;108014;1307;22218;-41
2023/06/11 07:32:53;;;;;;;7.70;3.80;;;;;;;19.56;56.15;99677.65;108029;1307;22405;-41
2023/06/11 07:35:19;;;;;;;9.70;3.50;;;;;;;19.65;55.50;99680.79;108016;1307;22227;-41
2023/06/11 07:37:45;;;;;;;6.80;3.60;;;;;;;19.73;55.11;99680.46;108035;1307;22490;-41
2023/06/11 07:40:12;;;;;;;6.20;5.40;;;;;;;19.81;54.50;99679.80;108038;1307;22219;-41
2023/06/11 07:42:37;;;;;;;6.30;3.30;;;;;;;19.87;53.19;99681.95;108022;1307;22244;-41
2023/06/11 07:45:03;;;;;;;5.80;3.60;;;;;;;19.96;53.45;99676.19;108021;1307;22275;-41
2023/06/11 07:47:28;;;;;;;7.40;4.30;;;;;;;20.03;52.47;99676.63;108022;1307;22230;-41
2023/06/11 07:49:54;;;;;;;5.20;2.90;;;;;;;20.13;52.26;99674.69;108017;1307;23192;-41
2023/06/11 07:52:20;;;;;;;5.20;3.00;;;;;;;20.25;51.94;99675.20;108010;1307;22227;-42
2023/06/11 07:54:46;;;;;;;4.10;3.20;;;;;;;20.38;51.86;99674.61;108021;1307;22866;-41
2023/06/11 07:57:12;;;;;;;4.90;2.90;;;;;;;20.53;50.76;99674.14;108014;1307;23087;-41
2023/06/11 07:59:40;;;;;;;7.30;3.10;;;;;;;20.61;49.95;99673.04;108015;1307;22270;-41
2023/06/11 08:02:07;;;;;;;4.20;3.20;;;;;;;20.61;46.81;99673.63;108032;1307;22235;-41
2023/06/11 08:04:32;;;;;;;3.10;2.70;;;;;;;20.67;47.05;99670.72;108040;1302;22232;-42
2023/06/11 08:06:58;;;;;;;3.80;2.80;;;;;;;20.77;46.53;99668.27;108018;1307;23578;-43
2023/06/11 08:09:23;;;;;;;9.60;3.00;;;;;;;20.95;46.53;99667.95;108029;1307;22513;-42
2023/06/11 08:11:48;;;;;;;6.50;2.70;;;;;;;21.11;44.77;99659.77;108013;1307;22207;-41
2023/06/11 08:14:18;;;;;;;8.10;2.70;;;;;;;21.21;44.18;99655.44;108012;1307;22401;-42
2023/06/11 08:16:43;;;;;;;6.40;2.50;;;;;;;21.31;43.29;99653.61;108021;1299;22224;-39
2023/06/11 08:19:08;;;;;;;5.70;2.50;;;;;;;21.45;43.33;99656.38;108014;1307;22215;-40
2023/06/11 08:21:34;;;;;;;28.10;2.90;;;;;;;21.59;42.68;99661.27;108012;1307;22445;-41
2023/06/11 08:23:59;;;;;;;8.40;4.20;;;;;;;21.69;40.82;99653.01;108006;1307;25112;-40
2023/06/11 08:26:25;;;;;;;5.90;2.40;;;;;;;21.77;41.08;99648.14;108044;1307;22192;-41
2023/06/11 08:28:50;;;;;;;7.70;2.80;;;;;;;21.87;41.25;99650.10;108011;1307;23125;-40
2023/06/11 08:31:16;;;;;;;6.60;2.40;;;;;;;22.02;40.75;99654.84;108024;1307;22404;-40
2023/06/11 08:33:41;;;;;;;3.90;2.20;;;;;;;22.16;39.89;99657.21;108027;1307;22214;-40
2023/06/11 08:36:07;;;;;;;5.30;2.10;;;;;;;22.19;38.46;99655.29;107998;1307;22408;-41
2023/06/11 08:38:32;;;;;;;5.10;2.10;;;;;;;22.31;39.60;99651.39;108006;1307;22446;-40
2023/06/11 08:40:57;;;;;;;4.20;2.10;;;;;;;22.45;39.10;99652.78;107999;1307;22471;-41
2023/06/11 08:43:24;;;;;;;10.50;2.20;;;;;;;22.57;37.20;99651.56;108014;1307;22290;-40
2023/06/11 08:45:49;;;;;;;3.30;2.00;;;;;;;22.67;35.93;99642.93;108028;1307;22211;-40
2023/06/11 08:48:20;;;;;;;7.10;2.30;;;;;;;22.85;37.53;99645.73;108052;1307;22398;-41
2023/06/11 08:50:48;;;;;;;3.40;1.90;;;;;;;23.01;35.08;99646.88;108017;1307;22930;-41
2023/06/11 08:53:13;;;;;;;6.00;2.10;;;;;;;23.12;34.31;99642.36;108013;1307;23137;-42
2023/06/11 08:55:39;;;;;;;3.40;2.00;;;;;;;23.28;35.22;99647.48;108026;1307;22242;-41
2023/06/11 08:58:05;;;;;;;2.70;2.10;;;;;;;23.42;33.37;99649.30;108042;1307;22918;-42
2023/06/11 09:00:30;;;;;;;4.40;2.10;;;;;;;23.46;32.76;99646.40;108054;1307;22462;-42
2023/06/11 09:02:56;;;;;;;7.60;1.90;;;;;;;23.61;34.01;99642.15;108022;1307;22227;-42
2023/06/11 09:05:21;;;;;;;4.00;2.20;;;;;;;23.84;33.53;99641.41;107979;1307;22412;-44
2023/06/11 09:07:48;;;;;;;3.70;2.20;;;;;;;24.06;32.68;99642.50;108023;1307;22228;-42
2023/06/11 09:10:14;;;;;;;;;;;;;;;24.22;31.51;99649.90;108027;1307;23178;-41
2023/06/11 09:12:39;;;;;;;5.80;2.00;;;;;;;24.32;30.64;99648.98;108035;1307;22287;-42
2023/06/11 09:15:05;;;;;;;6.70;1.90;;;;;;;24.45;31.10;99650.80;108040;1307;22412;-41
2023/06/11 09:17:35;;;;;;;2.50;1.70;;;;;;;24.61;30.37;99639.94;108044;1307;22222;-42
2023/06/11 09:20:04;;;;;;;5.50;2.10;;;;;;;24.76;30.40;99639.10;108036;1307;22263;-40
2023/06/11 09:22:30;;;;;;;6.60;4.30;;;;;;;24.96;29.81;99633.11;108026;1307;22249;-41
2023/06/11 09:24:55;;;;;;;7.70;2.30;;;;;;;25.16;29.22;99630.34;108026;1307;22203;-42
2023/06/11 09:27:22;;;;;;;6.10;2.20;;;;;;;25.55;29.15;99637.66;108017;1307;22294;-42
2023/06/11 09:29:47;;;;;;;4.40;1.80;;;;;;;26.04;28.59;99633.23;108028;1307;22471;-41
2023/06/11 09:32:12;;;;;;;2.60;1.70;;;;;;;26.55;29.30;99627.20;108007;1307;22524;-42
2023/06/11 09:34:38;;;;;;;5.50;1.90;;;;;;;26.99;28.01;99630.13;108017;1307;22406;-42
2023/06/11 09:37:03;;;;;;;3.40;2.10;;;;;;;27.50;27.58;99626.92;108032;1307;22298;-42
2023/06/11 09:39:29;;;;;;;2.60;1.80;;;;;;;27.95;25.85;99629.19;108039;1307;22227;-42
2023/06/11 09:41:55;;;;;;;3.20;2.00;;;;;;;28.35;26.22;99632.31;108037;1307;22238;-42
2023/06/11 09:44:20;;;;;;;2.20;1.60;;;;;;;28.80;24.65;99624.94;108008;1307;22236;-42
2023/06/11 09:46:49;;;;;;;4.80;1.80;;;;;;;29.27;23.52;99620.20;108038;1307;22192;-41
2023/06/11 09:49:16;;;;;;;4.00;1.80;;;;;;;29.84;24.00;99620.68;108027;1307;22128;-42
2023/06/11 09:51:42;;;;;;;5.90;1.70;;;;;;;30.43;23.38;99625.48;108034;1307;22224;-42
2023/06/11 09:54:08;;;;;;;;;;;;;;;30.92;21.89;99630.52;108058;1307;22495;-42
2023/06/11 09:56:37;;;;;;;6.70;1.90;;;;;;;31.35;21.40;99625.08;108031;1307;22441;-43
2023/06/11 09:59:04;;;;;;;2.40;1.40;;;;;;;31.81;20.53;99623.62;108017;1307;22857;-42
2023/06/11 10:01:30;;;;;;;3.80;1.60;;;;;;;32.09;19.62;99629.48;108001;1307;22248;-42
2023/06/11 10:03:59;;;;;;;3.30;1.70;;;;;;;32.40;20.41;99629.52;108018;1307;22236;-43
2023/06/11 10:06:32;;;;;;;3.70;1.50;;;;;;;32.62;20.05;99633.34;108034;1307;23323;-44
2023/06/11 10:09:03;;;;;;;8.70;1.60;;;;;;;32.78;20.34;99636.95;108031;1307;22308;-42
2023/06/11 10:11:30;;;;;;;5.60;1.40;;;;;;;32.81;18.88;99635.58;108022;1307;22298;-42
2023/06/11 10:13:58;;;;;;;3.50;1.40;;;;;;;32.87;18.61;99633.23;107998;1307;22220;-42
2023/06/11 10:16:25;;;;;;;5.00;1.80;;;;;;;33.18;18.34;99632.48;108033;1307;22246;-43
2023/06/11 10:18:51;;;;;;;5.10;1.40;;;;;;;33.46;17.64;99638.58;108011;1307;22408;-42
2023/06/11 10:21:18;;;;;;;3.90;1.30;;;;;;;33.70;18.02;99639.88;108018;1307;23036;-43
2023/06/11 10:23:50;;;;;;;2.70;1.40;;;;;;;33.86;16.86;99641.91;108026;1307;22378;-42
2023/06/11 10:26:16;;;;;;;3.40;1.50;;;;;;;33.91;16.55;99631.77;108024;1307;22304;-42
2023/06/11 10:28:48;;;;;;;5.90;2.00;;;;;;;33.96;16.59;99632.30;108017;1307;22606;-43
2023/06/11 10:31:35;;;;;;;3.50;1.40;;;;;;;33.92;16.42;99635.54;108034;1307;22239;-42
2023/06/11 10:34:02;;;;;;;2.10;1.90;;;;;;;34.19;16.35;99643.98;108005;1307;22327;-42
2023/06/11 10:36:35;;;;;;;7.80;1.40;;;;;;;34.19;15.97;99640.11;108004;1307;22414;-43
2023/06/11 10:39:08;;;;;;;2.10;1.50;;;;;;;34.43;16.16;99639.29;107999;1307;22304;-43
2023/06/11 10:41:37;;;;;;;3.00;1.50;;;;;;;34.75;16.05;99640.02;108009;1307;22227;-43
2023/06/11 10:44:03;;;;;;;3.30;1.70;;;;;;;34.64;15.43;99640.30;108029;1307;22207;-41
2023/06/11 10:46:28;;;;;;;3.10;1.50;;;;;;;34.68;15.66;99636.65;107781;1307;22305;-43
2023/06/11 10:48:56;;;;;;;1.50;1.30;;;;;;;34.89;15.94;99640.98;107988;1307;22743;-42
2023/06/11 10:51:22;;;;;;;3.30;1.40;;;;;;;34.92;15.39;99638.73;108014;1307;22473;-42
2023/06/11 10:53:56;;;;;;;4.60;1.50;;;;;;;34.73;15.63;99630.34;108019;1307;22362;-43
2023/06/11 10:56:23;;;;;;;1.40;1.20;;;;;;;35.13;15.86;99633.77;108010;1307;22892;-41
2023/06/11 10:58:50;;;;;;;2.70;1.40;;;;;;;35.21;15.17;99633.64;108011;1307;22396;-43
2023/06/11 11:01:18;;;;;;;4.50;2.00;;;;;;;34.99;15.35;99623.54;108024;1307;22243;-42
2023/06/11 11:03:43;;;;;;;2.10;1.30;;;;;;;35.39;15.46;99627.27;108011;1307;23053;-42
2023/06/11 11:06:09;;;;;;;3.70;1.50;;;;;;;35.46;14.89;99628.92;107991;1307;22342;-41
2023/06/11 11:08:35;;;;;;;7.90;1.50;;;;;;;35.55;14.14;99634.55;107993;1307;22464;-42
2023/06/11 11:11:00;;;;;;;3.20;1.40;;;;;;;35.99;14.28;99629.80;108024;1307;22229;-43
2023/06/11 11:13:26;;;;;;;3.00;1.30;;;;;;;35.54;13.48;99622.04;108034;1307;22508;-43
2023/06/11 11:15:52;;;;;;;2.90;1.60;;;;;;;35.90;13.96;99626.08;108006;1307;22246;-44
2023/06/11 11:18:17;;;;;;;4.00;1.50;;;;;;;36.34;14.46;99633.95;108039;1307;22231;-42
2023/06/11 11:20:44;;;;;;;2.50;1.30;;;;;;;36.38;13.88;99629.66;108028;1307;22235;-43
2023/06/11 11:23:10;;;;;;;3.00;1.30;;;;;;;36.45;14.01;99627.06;108025;1307;22993;-42